createdAt,value
2019-06-01T00:01:09.670Z,16.50
2019-06-01T00:03:40.187Z,16.50
2019-06-01T00:06:09.701Z,16.40
2019-06-01T00:08:40.156Z,16.40
2019-06-01T00:11:10.307Z,16.30
2019-06-01T00:13:39.707Z,16.30
2019-06-01T00:16:09.158Z,16.30
2019-06-01T00:18:39.757Z,16.20
2019-06-01T00:21:09.270Z,16.20
2019-06-01T00:23:38.604Z,16.10
2019-06-01T00:26:07.980Z,16.10
2019-06-01T00:28:37.402Z,16.10
2019-06-01T00:31:06.812Z,16.10
2019-06-01T00:33:36.186Z,16.00
2019-06-01T00:36:05.597Z,15.90
2019-06-01T00:38:34.977Z,15.90
2019-06-01T00:41:04.373Z,15.90
2019-06-01T00:43:33.736Z,15.80
2019-06-01T00:46:03.205Z,15.80
2019-06-01T00:48:32.649Z,15.80
2019-06-01T00:51:02.064Z,15.70
2019-06-01T00:53:31.444Z,15.70
2019-06-01T00:56:00.885Z,15.70
2019-06-01T00:58:30.251Z,15.70
2019-06-01T01:00:59.656Z,15.60
2019-06-01T01:03:29.022Z,15.60
2019-06-01T01:05:58.399Z,15.60
2019-06-01T01:08:27.779Z,15.60
2019-06-01T01:10:57.256Z,15.60
2019-06-01T01:13:27.560Z,15.50
2019-06-01T01:15:56.981Z,15.50
2019-06-01T01:18:26.387Z,15.50
2019-06-01T01:20:56.290Z,15.40
2019-06-01T01:23:25.763Z,15.40
2019-06-01T01:25:55.148Z,15.40
2019-06-01T01:28:24.573Z,15.30
2019-06-01T01:31:06.602Z,15.30
2019-06-01T01:33:25.030Z,15.30
2019-06-01T01:35:54.388Z,15.20
2019-06-01T01:38:25.272Z,15.20
2019-06-01T01:40:54.713Z,15.20
2019-06-01T01:43:24.112Z,15.20
2019-06-01T01:45:54.717Z,15.20
2019-06-01T01:48:24.296Z,15.20
2019-06-01T01:50:54.292Z,15.20
2019-06-01T01:53:23.694Z,15.20
2019-06-01T01:55:53.096Z,15.20
2019-06-01T01:58:22.548Z,15.20
2019-06-01T02:00:52.940Z,15.10
2019-06-01T02:03:23.292Z,15.10
2019-06-01T02:05:52.926Z,15.10
2019-06-01T02:08:22.388Z,15.10
2019-06-01T02:10:51.775Z,15.00
2019-06-01T02:13:21.193Z,15.00
2019-06-01T02:15:52.061Z,15.00
2019-06-01T02:18:21.767Z,15.00
2019-06-01T02:20:52.274Z,14.90
2019-06-01T02:23:21.984Z,14.90
2019-06-01T02:25:52.766Z,14.90
2019-06-01T02:28:22.501Z,14.90
2019-06-01T02:30:53.845Z,14.80
2019-06-01T02:33:23.092Z,14.80
2019-06-01T02:35:54.196Z,14.80
2019-06-01T02:38:23.599Z,14.80
2019-06-01T02:40:54.733Z,14.70
2019-06-01T02:43:24.073Z,14.70
2019-06-01T02:45:53.446Z,14.70
2019-06-01T02:48:22.876Z,14.70
2019-06-01T02:50:52.279Z,14.70
2019-06-01T02:53:23.399Z,14.70
2019-06-01T02:55:52.795Z,14.60
2019-06-01T02:58:22.209Z,14.60
2019-06-01T03:01:34.433Z,14.60
2019-06-01T03:04:09.999Z,14.60
2019-06-01T03:06:43.011Z,14.60
2019-06-01T03:09:12.821Z,14.60
2019-06-01T03:11:42.588Z,14.50
2019-06-01T03:14:13.325Z,14.50
2019-06-01T03:16:43.437Z,14.50
2019-06-01T03:19:16.313Z,14.50
2019-06-01T03:21:49.830Z,14.50
2019-06-01T03:24:23.857Z,14.50
2019-06-01T03:26:54.507Z,14.40
2019-06-01T03:29:26.793Z,14.40
2019-06-01T03:32:17.691Z,14.40
2019-06-01T03:34:27.302Z,14.40
2019-06-01T03:36:56.682Z,14.40
2019-06-01T03:39:26.085Z,14.40
2019-06-01T03:41:55.728Z,14.40
2019-06-01T03:44:25.095Z,14.50
2019-06-01T03:46:54.513Z,14.40
2019-06-01T03:49:23.964Z,14.40
2019-06-01T03:51:53.404Z,14.40
2019-06-01T03:54:22.766Z,14.40
2019-06-01T03:56:52.171Z,14.50
2019-06-01T03:59:21.592Z,14.40
2019-06-01T04:01:50.943Z,14.40
2019-06-01T04:04:20.362Z,14.50
2019-06-01T04:06:49.746Z,14.50
2019-06-01T04:09:19.121Z,14.50
2019-06-01T04:11:48.509Z,14.50
2019-06-01T04:14:17.897Z,14.50
2019-06-01T04:16:47.281Z,14.50
2019-06-01T04:19:16.625Z,14.60
2019-06-01T04:21:45.985Z,14.50
2019-06-01T04:24:15.325Z,14.60
2019-06-01T04:26:44.683Z,14.60
2019-06-01T04:29:14.020Z,14.60
2019-06-01T04:31:43.432Z,14.60
2019-06-01T04:34:13.151Z,14.60
2019-06-01T04:36:42.670Z,14.70
2019-06-01T04:39:12.051Z,14.70
2019-06-01T04:41:41.412Z,14.70
2019-06-01T04:44:12.102Z,14.70
2019-06-01T04:46:41.637Z,14.70
2019-06-01T04:49:10.993Z,14.70
2019-06-01T04:51:40.433Z,14.70
2019-06-01T04:54:11.229Z,14.70
2019-06-01T04:56:41.103Z,14.70
2019-06-01T04:59:10.923Z,14.80
2019-06-01T05:01:40.520Z,14.80
2019-06-01T05:04:11.081Z,14.80
2019-06-01T05:06:40.608Z,14.80
2019-06-01T05:09:11.254Z,14.80
2019-06-01T05:11:40.753Z,14.80
2019-06-01T05:14:10.141Z,14.90
2019-06-01T05:16:39.538Z,14.90
2019-06-01T05:19:10.048Z,14.90
2019-06-01T05:21:39.557Z,14.90
2019-06-01T05:24:09.004Z,15.00
2019-06-01T05:26:38.378Z,15.00
2019-06-01T05:29:07.768Z,15.10
2019-06-01T05:31:37.132Z,15.20
2019-06-01T05:34:07.693Z,15.20
2019-06-01T05:36:37.279Z,15.30
2019-06-01T05:39:08.346Z,15.30
2019-06-01T05:41:37.807Z,15.30
2019-06-01T05:44:07.271Z,15.40
2019-06-01T05:46:36.683Z,15.50
2019-06-01T05:49:06.096Z,15.60
2019-06-01T05:51:35.560Z,15.70
2019-06-01T05:54:04.949Z,15.70
2019-06-01T05:56:34.340Z,15.80
2019-06-01T05:59:03.743Z,15.90
2019-06-01T06:01:33.107Z,15.90
2019-06-01T06:04:02.482Z,15.90
2019-06-01T06:06:31.873Z,16.00
2019-06-01T06:09:01.300Z,16.10
2019-06-01T06:11:30.653Z,16.10
2019-06-01T06:14:00.081Z,16.20
2019-06-01T06:16:29.472Z,16.30
2019-06-01T06:18:58.862Z,16.40
2019-06-01T06:21:28.308Z,16.50
2019-06-01T06:23:57.741Z,16.60
2019-06-01T06:26:27.112Z,16.70
2019-06-01T06:28:56.481Z,16.70
2019-06-01T06:31:25.980Z,16.80
2019-06-01T06:33:56.981Z,16.90
2019-06-01T06:36:26.653Z,17.00
2019-06-01T06:38:56.067Z,17.10
2019-06-01T06:41:25.459Z,17.10
2019-06-01T06:43:54.840Z,17.20
2019-06-01T06:46:24.894Z,17.30
2019-06-01T06:48:54.365Z,17.40
2019-06-01T06:51:23.799Z,17.50
2019-06-01T06:53:53.328Z,17.60
2019-06-01T06:56:23.967Z,17.70
2019-06-01T06:58:53.564Z,17.80
2019-06-01T07:01:23.072Z,17.90
2019-06-01T07:03:52.546Z,17.90
2019-06-01T07:06:21.943Z,18.00
2019-06-01T07:08:51.619Z,18.10
2019-06-01T07:11:21.264Z,18.20
2019-06-01T07:13:50.877Z,18.30
2019-06-01T07:16:21.433Z,18.40
2019-06-01T07:18:51.096Z,18.50
2019-06-01T07:21:21.614Z,18.50
2019-06-01T07:23:51.268Z,18.60
2019-06-01T07:26:21.885Z,18.70
2019-06-01T07:28:51.652Z,18.80
2019-06-01T07:31:22.109Z,18.90
2019-06-01T07:33:51.610Z,19.00
2019-06-01T07:36:22.168Z,19.00
2019-06-01T07:38:51.921Z,19.10
2019-06-01T07:41:22.475Z,19.20
2019-06-01T07:43:52.141Z,19.30
2019-06-01T07:46:22.686Z,19.40
2019-06-01T07:48:52.237Z,19.50
2019-06-01T07:51:23.097Z,19.60
2019-06-01T07:53:52.866Z,19.70
2019-06-01T07:56:22.660Z,19.80
2019-06-01T07:58:52.172Z,19.80
2019-06-01T08:01:24.568Z,19.90
2019-06-01T08:03:52.667Z,19.90
2019-06-01T08:06:23.834Z,19.90
2019-06-01T08:08:53.367Z,20.00
2019-06-01T08:11:25.495Z,20.00
2019-06-01T08:13:53.912Z,20.10
2019-06-01T08:16:23.661Z,20.20
2019-06-01T08:18:53.557Z,20.20
2019-06-01T08:21:23.982Z,20.30
2019-06-01T08:23:53.462Z,20.30
2019-06-01T08:26:22.797Z,20.40
2019-06-01T08:28:52.189Z,20.40
2019-06-01T08:31:22.569Z,20.60
2019-06-01T08:33:52.001Z,20.60
2019-06-01T08:36:21.391Z,20.70
2019-06-01T08:38:50.875Z,20.80
2019-06-01T08:41:20.313Z,20.80
2019-06-01T08:43:49.726Z,20.80
2019-06-01T08:46:19.164Z,20.90
2019-06-01T08:48:48.605Z,20.90
2019-06-01T08:51:18.000Z,21.00
2019-06-01T08:53:47.903Z,21.10
2019-06-01T08:56:21.063Z,21.10
2019-06-01T08:58:51.169Z,21.30
2019-06-01T09:01:20.593Z,21.40
2019-06-01T09:03:49.944Z,21.50
2019-06-01T09:06:19.296Z,21.60
2019-06-01T09:08:48.688Z,21.70
2019-06-01T09:11:18.125Z,21.80
2019-06-01T09:13:47.552Z,21.80
2019-06-01T09:16:16.919Z,21.90
2019-06-01T09:18:46.329Z,22.00
2019-06-01T09:21:15.664Z,22.00
2019-06-01T09:23:45.058Z,22.20
2019-06-01T09:26:14.415Z,22.30
2019-06-01T09:28:43.761Z,22.40
2019-06-01T09:31:13.176Z,22.50
2019-06-01T09:33:42.520Z,22.70
2019-06-01T09:36:11.877Z,22.80
2019-06-01T09:38:41.238Z,22.80
2019-06-01T09:41:10.648Z,22.90
2019-06-01T09:43:43.308Z,23.00
2019-06-01T09:46:12.709Z,23.20
2019-06-01T09:48:42.174Z,23.30
2019-06-01T09:51:11.551Z,23.40
2019-06-01T09:53:40.905Z,23.40
2019-06-01T09:56:10.339Z,23.50
2019-06-01T09:58:39.704Z,23.60
2019-06-01T10:01:09.080Z,23.70
2019-06-01T10:03:38.682Z,23.80
2019-06-01T10:06:08.110Z,23.90
2019-06-01T10:08:38.176Z,24.00
2019-06-01T10:11:07.736Z,24.00
2019-06-01T10:13:38.288Z,24.10
2019-06-01T10:16:08.176Z,24.10
2019-06-01T10:18:38.812Z,24.30
2019-06-01T10:21:08.476Z,24.30
2019-06-01T10:23:38.460Z,24.40
2019-06-01T10:26:08.109Z,24.50
2019-06-01T10:28:37.791Z,24.50
2019-06-01T10:31:09.343Z,24.60
2019-06-01T10:34:12.394Z,24.70
2019-06-01T10:36:42.207Z,24.70
2019-06-01T10:39:11.688Z,24.80
2019-06-01T10:41:41.572Z,24.90
2019-06-01T10:44:10.933Z,25.00
2019-06-01T10:46:40.366Z,25.10
2019-06-01T10:49:09.786Z,25.10
2019-06-01T10:51:40.353Z,25.20
2019-06-01T10:54:09.905Z,25.20
2019-06-01T10:56:40.388Z,25.30
2019-06-01T10:59:10.029Z,25.40
2019-06-01T11:01:40.711Z,25.40
2019-06-01T11:04:10.578Z,25.50
2019-06-01T11:06:48.172Z,25.50
2019-06-01T11:09:14.089Z,25.60
2019-06-01T11:11:43.678Z,25.60
2019-06-01T11:14:13.032Z,25.70
2019-06-01T11:16:43.851Z,25.80
2019-06-01T11:19:13.655Z,25.80
2019-06-01T11:21:43.791Z,25.90
2019-06-01T11:24:13.482Z,26.00
2019-06-01T11:26:43.889Z,26.10
2019-06-01T11:29:13.385Z,26.10
2019-06-01T11:31:44.109Z,26.20
2019-06-01T11:34:13.718Z,26.20
2019-06-01T11:37:03.609Z,26.20
2019-06-01T11:39:14.308Z,26.30
2019-06-01T11:41:44.791Z,26.30
2019-06-01T11:44:14.273Z,26.40
2019-06-01T11:46:44.989Z,26.40
2019-06-01T11:49:14.680Z,26.50
2019-06-01T11:51:45.176Z,26.60
2019-06-01T11:54:14.806Z,26.60
2019-06-01T11:56:45.413Z,26.60
2019-06-01T11:59:15.059Z,26.70
2019-06-01T12:01:45.885Z,26.70
2019-06-01T12:04:15.561Z,26.80
2019-06-01T12:06:46.208Z,26.90
2019-06-01T12:09:15.739Z,26.90
2019-06-01T12:11:46.388Z,26.90
2019-06-01T12:14:15.886Z,27.00
2019-06-01T12:16:46.651Z,27.10
2019-06-01T12:19:16.252Z,27.10
2019-06-01T12:21:47.245Z,27.20
2019-06-01T12:24:25.467Z,27.20
2019-06-01T12:26:51.708Z,27.20
2019-06-01T12:29:21.372Z,27.30
2019-06-01T12:31:51.255Z,27.30
2019-06-01T12:34:20.837Z,27.40
2019-06-01T12:36:50.555Z,27.40
2019-06-01T12:39:20.473Z,27.40
2019-06-01T12:41:50.141Z,27.40
2019-06-01T12:44:19.941Z,27.40
2019-06-01T12:46:49.735Z,27.40
2019-06-01T12:49:19.714Z,27.50
2019-06-01T12:51:49.249Z,27.50
2019-06-01T12:54:19.047Z,27.60
2019-06-01T12:56:49.792Z,27.70
2019-06-01T12:59:19.421Z,27.80
2019-06-01T13:01:49.322Z,27.80
2019-06-01T13:04:19.207Z,27.90
2019-06-01T13:06:52.254Z,28.00
2019-06-01T13:09:19.700Z,28.10
2019-06-01T13:11:49.507Z,28.10
2019-06-01T13:14:18.996Z,28.10
2019-06-01T13:17:03.080Z,28.20
2019-06-01T13:19:19.560Z,28.20
2019-06-01T13:21:50.197Z,28.30
2019-06-01T13:24:20.584Z,28.40
2019-06-01T13:26:50.282Z,28.40
2019-06-01T13:29:19.864Z,28.50
2019-06-01T13:31:50.470Z,28.60
2019-06-01T13:34:20.382Z,28.70
2019-06-01T13:36:50.872Z,28.70
2019-06-01T13:39:20.506Z,28.80
2019-06-01T13:41:51.536Z,28.80
2019-06-01T13:44:21.335Z,28.90
2019-06-01T13:46:51.522Z,29.00
2019-06-01T13:49:21.278Z,29.00
2019-06-01T13:51:50.967Z,29.00
2019-06-01T13:54:20.900Z,29.10
2019-06-01T13:56:50.979Z,29.20
2019-06-01T13:59:20.771Z,29.30
2019-06-01T14:01:51.409Z,29.40
2019-06-01T14:04:21.128Z,29.50
2019-06-01T14:06:51.168Z,29.50
2019-06-01T14:09:22.094Z,29.50
2019-06-01T14:11:51.870Z,29.60
2019-06-01T14:14:21.418Z,29.60
2019-06-01T14:16:51.770Z,29.50
2019-06-01T14:19:21.452Z,29.50
2019-06-01T14:21:54.290Z,29.50
2019-06-01T14:24:24.014Z,29.50
2019-06-01T14:26:54.368Z,29.50
2019-06-01T14:29:24.036Z,29.40
2019-06-01T14:31:55.122Z,29.50
2019-06-01T14:34:24.583Z,29.50
2019-06-01T14:36:54.568Z,29.50
2019-06-01T14:39:24.212Z,29.50
2019-06-01T14:41:55.524Z,29.60
2019-06-01T14:44:24.993Z,29.70
2019-06-01T14:47:02.183Z,29.80
2019-06-01T14:49:25.661Z,29.80
2019-06-01T14:51:55.802Z,29.90
2019-06-01T14:54:25.299Z,30.00
2019-06-01T14:56:55.832Z,30.00
2019-06-01T14:59:25.363Z,30.10
2019-06-01T15:01:56.166Z,30.10
2019-06-01T15:04:25.859Z,30.00
2019-06-01T15:06:56.498Z,30.00
2019-06-01T15:09:26.426Z,29.90
2019-06-01T15:11:56.578Z,29.90
2019-06-01T15:14:26.431Z,30.00
2019-06-01T15:16:56.288Z,30.00
2019-06-01T15:19:25.947Z,30.00
2019-06-01T15:21:56.240Z,30.10
2019-06-01T15:24:25.957Z,30.00
2019-06-01T15:26:56.779Z,30.00
2019-06-01T15:29:26.472Z,30.10
2019-06-01T15:31:56.050Z,30.10
2019-06-01T15:34:25.696Z,30.20
2019-06-01T15:36:55.553Z,30.30
2019-06-01T15:39:25.707Z,30.40
2019-06-01T15:41:55.629Z,30.40
2019-06-01T15:44:25.254Z,30.40
2019-06-01T15:46:55.764Z,30.40
2019-06-01T15:49:25.496Z,30.40
2019-06-01T15:51:55.821Z,30.40
2019-06-01T15:54:27.305Z,30.30
2019-06-01T15:56:56.814Z,30.20
2019-06-01T15:59:26.230Z,30.20
2019-06-01T16:01:57.141Z,30.10
2019-06-01T16:04:26.773Z,30.10
2019-06-01T16:06:57.164Z,30.20
2019-06-01T16:09:41.672Z,30.10
2019-06-01T16:11:57.844Z,30.00
2019-06-01T16:14:27.261Z,30.10
2019-06-01T16:16:57.887Z,30.00
2019-06-01T16:19:27.580Z,30.00
2019-06-01T16:21:58.005Z,30.00
2019-06-01T16:24:27.854Z,30.00
2019-06-01T16:26:58.246Z,30.00
2019-06-01T16:29:27.811Z,30.00
2019-06-01T16:31:58.577Z,30.00
2019-06-01T16:34:28.246Z,30.00
2019-06-01T16:36:58.883Z,30.00
2019-06-01T16:39:28.622Z,29.90
2019-06-01T16:41:59.694Z,29.90
2019-06-01T16:44:29.346Z,29.90
2019-06-01T16:46:59.662Z,29.90
2019-06-01T16:49:29.160Z,29.80
2019-06-01T16:52:01.281Z,29.80
2019-06-01T16:54:31.097Z,29.70
2019-06-01T16:57:00.609Z,29.60
2019-06-01T16:59:30.077Z,29.60
2019-06-01T17:02:00.951Z,29.50
2019-06-01T17:04:30.809Z,29.40
2019-06-01T17:07:00.663Z,29.40
2019-06-01T17:09:30.355Z,29.30
2019-06-01T17:12:00.790Z,29.20
2019-06-01T17:14:30.827Z,29.10
2019-06-01T17:17:01.085Z,29.00
2019-06-01T17:19:30.888Z,28.90
2019-06-01T17:22:01.472Z,28.80
2019-06-01T17:24:31.222Z,28.70
2019-06-01T17:27:02.141Z,28.60
2019-06-01T17:29:31.912Z,28.50
2019-06-01T17:32:17.795Z,28.40
2019-06-01T17:34:32.889Z,28.30
2019-06-01T17:37:02.799Z,28.20
2019-06-01T17:39:32.470Z,28.10
2019-06-01T17:42:02.509Z,28.00
2019-06-01T17:44:32.155Z,27.90
2019-06-01T17:47:02.029Z,27.80
2019-06-01T17:49:31.808Z,27.70
2019-06-01T17:52:01.828Z,27.60
2019-06-01T17:54:31.637Z,27.50
2019-06-01T17:57:01.235Z,27.40
2019-06-01T17:59:31.490Z,27.30
2019-06-01T18:02:01.767Z,27.20
2019-06-01T18:04:31.781Z,27.10
2019-06-01T18:07:01.776Z,27.10
2019-06-01T18:09:31.573Z,27.00
2019-06-01T18:12:01.983Z,26.90
2019-06-01T18:14:31.955Z,26.90
2019-06-01T18:17:02.256Z,26.90
2019-06-01T18:19:31.889Z,26.80
2019-06-01T18:22:02.524Z,26.70
2019-06-01T18:24:32.254Z,26.60
2019-06-01T18:27:02.363Z,26.60
2019-06-01T18:29:31.980Z,26.50
2019-06-01T18:32:02.927Z,26.40
2019-06-01T18:34:32.663Z,26.30
2019-06-01T18:37:03.165Z,26.20
2019-06-01T18:39:32.809Z,26.10
2019-06-01T18:42:03.700Z,26.00
2019-06-01T18:44:33.734Z,25.90
2019-06-01T18:47:03.759Z,25.90
2019-06-01T18:49:34.089Z,25.80
2019-06-01T18:52:04.144Z,25.70
2019-06-01T18:54:33.966Z,25.70
2019-06-01T18:57:12.379Z,25.60
2019-06-01T18:59:34.652Z,25.60
2019-06-01T19:02:04.337Z,25.50
2019-06-01T19:04:34.062Z,25.40
2019-06-01T19:07:04.954Z,25.40
2019-06-01T19:09:34.924Z,25.40
2019-06-01T19:12:04.766Z,25.30
2019-06-01T19:14:34.468Z,25.20
2019-06-01T19:17:06.121Z,25.10
2019-06-01T19:19:35.883Z,25.10
2019-06-01T19:22:06.380Z,25.00
2019-06-01T19:24:36.793Z,24.90
2019-06-01T19:27:06.733Z,24.80
2019-06-01T19:29:36.314Z,24.70
2019-06-01T19:32:06.742Z,24.70
2019-06-01T19:34:37.397Z,24.50
2019-06-01T19:37:07.258Z,24.50
2019-06-01T19:39:37.447Z,24.40
2019-06-01T19:42:07.221Z,24.30
2019-06-01T19:44:36.874Z,24.20
2019-06-01T19:47:07.686Z,24.10
2019-06-01T19:49:37.356Z,24.00
2019-06-01T19:52:07.025Z,23.90
2019-06-01T19:54:36.660Z,23.80
2019-06-01T19:57:06.277Z,23.70
2019-06-01T19:59:36.078Z,23.60
2019-06-01T20:02:22.592Z,23.60
2019-06-01T20:04:37.416Z,23.50
2019-06-01T20:07:07.805Z,23.40
2019-06-01T20:09:37.411Z,23.40
2019-06-01T20:12:11.522Z,23.20
2019-06-01T20:14:38.586Z,23.20
2019-06-01T20:17:08.501Z,23.10
2019-06-01T20:19:38.176Z,23.00
2019-06-01T20:22:07.993Z,22.90
2019-06-01T20:24:37.635Z,22.90
2019-06-01T20:27:07.624Z,22.80
2019-06-01T20:29:37.462Z,22.70
2019-06-01T20:32:07.070Z,22.60
2019-06-01T20:34:36.927Z,22.60
2019-06-01T20:37:06.523Z,22.50
2019-06-01T20:39:36.305Z,22.40
2019-06-01T20:42:20.773Z,22.40
2019-06-01T20:44:37.499Z,22.30
2019-06-01T20:47:07.277Z,22.20
2019-06-01T20:49:37.318Z,22.10
2019-06-01T20:52:06.991Z,22.10
2019-06-01T20:54:36.766Z,22.00
2019-06-01T20:57:09.515Z,22.00
2019-06-01T20:59:39.235Z,21.90
2019-06-01T21:02:08.915Z,21.90
2019-06-01T21:04:56.074Z,21.80
2019-06-01T21:07:25.928Z,21.80
2019-06-01T21:09:55.422Z,21.70
2019-06-01T21:14:56.468Z,21.60
2019-06-01T21:17:26.192Z,21.60
2019-06-01T21:19:55.768Z,21.50
2019-06-01T21:22:25.642Z,21.50
2019-06-01T21:24:55.439Z,21.40
2019-06-01T21:27:25.255Z,21.30
2019-06-01T21:29:55.058Z,21.20
2019-06-01T21:32:25.672Z,21.10
2019-06-01T21:34:55.398Z,21.10
2019-06-01T21:37:26.430Z,21.10
2019-06-01T21:39:56.493Z,21.00
2019-06-01T21:42:26.325Z,20.90
2019-06-01T21:44:56.000Z,20.90
2019-06-01T21:47:25.854Z,20.90
2019-06-01T21:49:55.532Z,20.90
2019-06-01T21:52:26.391Z,20.80
2019-06-01T21:54:56.481Z,20.80
2019-06-01T21:57:26.671Z,20.70
2019-06-01T21:59:56.563Z,20.70
2019-06-01T22:02:27.215Z,20.70
2019-06-01T22:04:56.853Z,20.60
2019-06-01T22:07:27.412Z,20.60
2019-06-01T22:09:57.112Z,20.60
2019-06-01T22:12:27.811Z,20.50
2019-06-01T22:14:57.503Z,20.50
2019-06-01T22:17:27.921Z,20.50
2019-06-01T22:19:57.743Z,20.40
2019-06-01T22:22:28.077Z,20.40
2019-06-01T22:24:57.782Z,20.40
2019-06-01T22:27:28.406Z,20.30
2019-06-01T22:29:58.177Z,20.20
2019-06-01T22:32:31.498Z,20.30
2019-06-01T22:34:59.350Z,20.20
2019-06-01T22:37:28.938Z,20.20
2019-06-01T22:39:58.465Z,20.10
2019-06-01T22:42:28.451Z,20.10
2019-06-01T22:44:58.064Z,20.00
2019-06-01T22:47:29.039Z,20.00
2019-06-01T22:49:58.695Z,19.90
2019-06-01T22:52:29.126Z,19.90
2019-06-01T22:54:58.715Z,19.90
2019-06-01T22:57:30.600Z,19.80
2019-06-01T23:00:00.131Z,19.80
2019-06-01T23:02:29.895Z,19.80
2019-06-01T23:04:59.521Z,19.80
2019-06-01T23:07:29.332Z,19.80
2019-06-01T23:09:58.973Z,19.80
2019-06-01T23:12:29.499Z,19.80
2019-06-01T23:14:59.142Z,19.80
2019-06-01T23:17:29.797Z,19.80
2019-06-01T23:19:59.357Z,19.70
2019-06-01T23:22:30.023Z,19.70
2019-06-01T23:24:59.594Z,19.70
2019-06-01T23:27:31.100Z,19.60
2019-06-01T23:30:00.672Z,19.60
2019-06-01T23:32:30.689Z,19.60
2019-06-01T23:35:00.330Z,19.60
2019-06-01T23:37:30.785Z,19.50
2019-06-01T23:40:00.405Z,19.60
2019-06-01T23:42:30.895Z,19.50
2019-06-01T23:45:00.532Z,19.50
2019-06-01T23:47:31.281Z,19.50
2019-06-01T23:50:00.841Z,19.50
2019-06-01T23:52:31.590Z,19.50
2019-06-01T23:55:01.132Z,19.40
2019-06-01T23:57:30.584Z,19.40
